sensor_id;sensor_type;location;lat;lon;timestamp;P1;durP1;ratioP1;P2;durP2;ratioP2
23952;SDS011;12163;49.316;6.092;2023-09-19T00:00:17;9.57;;;2.42;;
23952;SDS011;12163;49.316;6.092;2023-09-19T00:02:46;7.50;;;2.10;;
23952;SDS011;12163;49.316;6.092;2023-09-19T00:05:18;6.97;;;2.33;;
23952;SDS011;12163;49.316;6.092;2023-09-19T00:07:45;7.00;;;2.42;;
23952;SDS011;12163;49.316;6.092;2023-09-19T00:10:12;10.57;;;2.00;;
23952;SDS011;12163;49.316;6.092;2023-09-19T00:12:42;9.27;;;2.40;;
23952;SDS011;12163;49.316;6.092;2023-09-19T00:15:09;5.38;;;2.00;;
23952;SDS011;12163;49.316;6.092;2023-09-19T00:17:37;7.22;;;2.03;;
23952;SDS011;12163;49.316;6.092;2023-09-19T00:20:06;5.78;;;2.17;;
23952;SDS011;12163;49.316;6.092;2023-09-19T00:22:39;9.48;;;2.22;;
23952;SDS011;12163;49.316;6.092;2023-09-19T00:25:08;5.85;;;2.40;;
23952;SDS011;12163;49.316;6.092;2023-09-19T00:27:38;6.20;;;1.92;;
23952;SDS011;12163;49.316;6.092;2023-09-19T00:30:08;8.20;;;2.13;;
23952;SDS011;12163;49.316;6.092;2023-09-19T00:32:50;13.15;;;2.40;;
23952;SDS011;12163;49.316;6.092;2023-09-19T00:35:21;6.65;;;2.20;;
23952;SDS011;12163;49.316;6.092;2023-09-19T00:37:52;9.10;;;2.20;;
23952;SDS011;12163;49.316;6.092;2023-09-19T00:40:19;7.30;;;2.13;;
23952;SDS011;12163;49.316;6.092;2023-09-19T00:42:48;9.27;;;2.50;;
23952;SDS011;12163;49.316;6.092;2023-09-19T00:45:15;9.05;;;2.45;;
23952;SDS011;12163;49.316;6.092;2023-09-19T00:47:44;7.70;;;2.20;;
23952;SDS011;12163;49.316;6.092;2023-09-19T00:50:13;11.90;;;2.60;;
23952;SDS011;12163;49.316;6.092;2023-09-19T00:52:43;9.45;;;2.28;;
23952;SDS011;12163;49.316;6.092;2023-09-19T00:55:11;15.52;;;2.90;;
23952;SDS011;12163;49.316;6.092;2023-09-19T00:57:39;9.85;;;2.10;;
23952;SDS011;12163;49.316;6.092;2023-09-19T01:00:07;8.57;;;1.90;;
23952;SDS011;12163;49.316;6.092;2023-09-19T01:02:38;13.63;;;2.45;;
23952;SDS011;12163;49.316;6.092;2023-09-19T01:05:05;9.85;;;2.10;;
23952;SDS011;12163;49.316;6.092;2023-09-19T01:07:32;7.75;;;2.20;;
23952;SDS011;12163;49.316;6.092;2023-09-19T01:10:02;8.38;;;2.28;;
23952;SDS011;12163;49.316;6.092;2023-09-19T01:23:06;7.13;;;2.20;;
23952;SDS011;12163;49.316;6.092;2023-09-19T01:31:21;8.25;;;2.13;;
23952;SDS011;12163;49.316;6.092;2023-09-19T01:36:27;9.55;;;2.03;;
23952;SDS011;12163;49.316;6.092;2023-09-19T01:38:57;9.68;;;2.53;;
23952;SDS011;12163;49.316;6.092;2023-09-19T01:41:29;9.95;;;2.10;;
23952;SDS011;12163;49.316;6.092;2023-09-19T01:44:09;9.18;;;2.10;;
23952;SDS011;12163;49.316;6.092;2023-09-19T01:46:44;8.95;;;2.38;;
23952;SDS011;12163;49.316;6.092;2023-09-19T01:52:22;8.35;;;2.05;;
23952;SDS011;12163;49.316;6.092;2023-09-19T01:54:56;8.43;;;2.45;;
23952;SDS011;12163;49.316;6.092;2023-09-19T01:58:16;9.05;;;2.38;;
23952;SDS011;12163;49.316;6.092;2023-09-19T02:00:32;10.43;;;2.40;;
23952;SDS011;12163;49.316;6.092;2023-09-19T02:03:03;15.57;;;2.90;;
23952;SDS011;12163;49.316;6.092;2023-09-19T02:07:57;7.50;;;2.55;;
23952;SDS011;12163;49.316;6.092;2023-09-19T02:10:25;6.30;;;2.22;;
23952;SDS011;12163;49.316;6.092;2023-09-19T02:12:51;9.85;;;2.40;;
23952;SDS011;12163;49.316;6.092;2023-09-19T02:15:18;10.13;;;2.67;;
23952;SDS011;12163;49.316;6.092;2023-09-19T02:17:45;11.70;;;2.55;;
23952;SDS011;12163;49.316;6.092;2023-09-19T02:20:12;10.18;;;2.78;;
23952;SDS011;12163;49.316;6.092;2023-09-19T02:22:41;13.23;;;2.65;;
23952;SDS011;12163;49.316;6.092;2023-09-19T02:25:08;7.60;;;2.55;;
23952;SDS011;12163;49.316;6.092;2023-09-19T02:27:35;12.02;;;2.47;;
23952;SDS011;12163;49.316;6.092;2023-09-19T02:30:02;11.65;;;3.35;;
23952;SDS011;12163;49.316;6.092;2023-09-19T02:32:30;6.63;;;2.40;;
23952;SDS011;12163;49.316;6.092;2023-09-19T02:35:02;13.35;;;2.90;;
23952;SDS011;12163;49.316;6.092;2023-09-19T02:37:31;9.50;;;2.80;;
23952;SDS011;12163;49.316;6.092;2023-09-19T02:39:59;12.25;;;2.85;;
23952;SDS011;12163;49.316;6.092;2023-09-19T02:42:25;11.18;;;2.83;;
23952;SDS011;12163;49.316;6.092;2023-09-19T02:44:52;6.97;;;2.63;;
23952;SDS011;12163;49.316;6.092;2023-09-19T02:47:19;8.18;;;2.63;;
23952;SDS011;12163;49.316;6.092;2023-09-19T02:49:46;8.85;;;2.45;;
23952;SDS011;12163;49.316;6.092;2023-09-19T02:52:12;9.23;;;2.65;;
23952;SDS011;12163;49.316;6.092;2023-09-19T02:54:41;11.48;;;3.10;;
23952;SDS011;12163;49.316;6.092;2023-09-19T02:57:08;11.52;;;2.42;;
23952;SDS011;12163;49.316;6.092;2023-09-19T02:59:36;9.50;;;3.00;;
23952;SDS011;12163;49.316;6.092;2023-09-19T03:02:03;6.95;;;2.53;;
23952;SDS011;12163;49.316;6.092;2023-09-19T03:04:31;14.20;;;2.80;;
23952;SDS011;12163;49.316;6.092;2023-09-19T03:06:59;9.13;;;2.47;;
23952;SDS011;12163;49.316;6.092;2023-09-19T03:09:27;7.38;;;2.33;;
23952;SDS011;12163;49.316;6.092;2023-09-19T03:11:54;7.40;;;2.25;;
23952;SDS011;12163;49.316;6.092;2023-09-19T03:14:20;14.50;;;2.30;;
23952;SDS011;12163;49.316;6.092;2023-09-19T03:16:47;7.40;;;2.35;;
23952;SDS011;12163;49.316;6.092;2023-09-19T03:19:14;15.75;;;2.97;;
23952;SDS011;12163;49.316;6.092;2023-09-19T03:21:41;4.38;;;1.90;;
23952;SDS011;12163;49.316;6.092;2023-09-19T03:24:08;9.90;;;2.47;;
23952;SDS011;12163;49.316;6.092;2023-09-19T03:26:34;9.48;;;2.50;;
23952;SDS011;12163;49.316;6.092;2023-09-19T03:29:04;8.27;;;2.10;;
23952;SDS011;12163;49.316;6.092;2023-09-19T03:31:33;9.68;;;2.53;;
23952;SDS011;12163;49.316;6.092;2023-09-19T03:34:03;8.73;;;2.78;;
23952;SDS011;12163;49.316;6.092;2023-09-19T03:36:30;13.13;;;2.47;;
23952;SDS011;12163;49.316;6.092;2023-09-19T03:38:57;14.15;;;2.63;;
23952;SDS011;12163;49.316;6.092;2023-09-19T03:41:23;8.93;;;2.55;;
23952;SDS011;12163;49.316;6.092;2023-09-19T03:43:50;10.13;;;2.25;;
23952;SDS011;12163;49.316;6.092;2023-09-19T03:46:17;9.02;;;2.33;;
23952;SDS011;12163;49.316;6.092;2023-09-19T03:48:43;9.25;;;2.45;;
23952;SDS011;12163;49.316;6.092;2023-09-19T03:51:10;11.32;;;2.60;;
23952;SDS011;12163;49.316;6.092;2023-09-19T03:53:37;10.82;;;2.20;;
23952;SDS011;12163;49.316;6.092;2023-09-19T03:56:04;10.30;;;2.50;;
23952;SDS011;12163;49.316;6.092;2023-09-19T03:58:31;8.20;;;2.55;;
23952;SDS011;12163;49.316;6.092;2023-09-19T04:00:58;16.83;;;2.97;;
23952;SDS011;12163;49.316;6.092;2023-09-19T04:03:24;9.73;;;2.40;;
23952;SDS011;12163;49.316;6.092;2023-09-19T04:06:01;9.65;;;2.72;;
23952;SDS011;12163;49.316;6.092;2023-09-19T04:08:28;7.38;;;2.70;;
23952;SDS011;12163;49.316;6.092;2023-09-19T04:10:55;10.35;;;2.70;;
23952;SDS011;12163;49.316;6.092;2023-09-19T04:13:23;9.05;;;2.45;;
23952;SDS011;12163;49.316;6.092;2023-09-19T04:15:49;12.93;;;2.40;;
23952;SDS011;12163;49.316;6.092;2023-09-19T04:18:16;10.60;;;2.92;;
23952;SDS011;12163;49.316;6.092;2023-09-19T04:20:48;16.02;;;3.13;;
23952;SDS011;12163;49.316;6.092;2023-09-19T04:25:43;9.57;;;3.17;;
23952;SDS011;12163;49.316;6.092;2023-09-19T04:28:09;10.93;;;2.88;;
23952;SDS011;12163;49.316;6.092;2023-09-19T04:30:39;16.83;;;3.08;;
23952;SDS011;12163;49.316;6.092;2023-09-19T04:33:08;13.48;;;3.10;;
23952;SDS011;12163;49.316;6.092;2023-09-19T04:35:35;12.13;;;3.03;;
23952;SDS011;12163;49.316;6.092;2023-09-19T04:38:02;16.85;;;3.08;;
23952;SDS011;12163;49.316;6.092;2023-09-19T04:40:29;10.25;;;2.75;;
23952;SDS011;12163;49.316;6.092;2023-09-19T04:42:56;7.43;;;2.30;;
23952;SDS011;12163;49.316;6.092;2023-09-19T04:45:23;9.57;;;2.40;;
23952;SDS011;12163;49.316;6.092;2023-09-19T04:47:50;14.68;;;3.10;;
23952;SDS011;12163;49.316;6.092;2023-09-19T04:50:17;10.77;;;3.10;;
23952;SDS011;12163;49.316;6.092;2023-09-19T04:52:44;12.23;;;2.90;;
23952;SDS011;12163;49.316;6.092;2023-09-19T04:55:12;8.57;;;2.15;;
23952;SDS011;12163;49.316;6.092;2023-09-19T04:57:47;13.20;;;2.60;;
23952;SDS011;12163;49.316;6.092;2023-09-19T05:00:15;10.27;;;2.80;;
23952;SDS011;12163;49.316;6.092;2023-09-19T05:02:52;15.50;;;3.00;;
23952;SDS011;12163;49.316;6.092;2023-09-19T05:05:23;9.37;;;2.70;;
23952;SDS011;12163;49.316;6.092;2023-09-19T05:07:52;12.98;;;2.92;;
23952;SDS011;12163;49.316;6.092;2023-09-19T05:10:22;11.93;;;2.63;;
23952;SDS011;12163;49.316;6.092;2023-09-19T05:12:49;13.18;;;3.08;;
23952;SDS011;12163;49.316;6.092;2023-09-19T05:15:19;11.45;;;2.58;;
23952;SDS011;12163;49.316;6.092;2023-09-19T05:17:49;10.47;;;2.30;;
23952;SDS011;12163;49.316;6.092;2023-09-19T05:20:22;11.57;;;2.67;;
23952;SDS011;12163;49.316;6.092;2023-09-19T05:23:03;11.80;;;2.58;;
23952;SDS011;12163;49.316;6.092;2023-09-19T05:25:39;10.02;;;2.70;;
23952;SDS011;12163;49.316;6.092;2023-09-19T05:28:06;8.32;;;2.50;;
23952;SDS011;12163;49.316;6.092;2023-09-19T05:30:35;11.73;;;2.37;;
23952;SDS011;12163;49.316;6.092;2023-09-19T05:33:02;10.45;;;2.55;;
23952;SDS011;12163;49.316;6.092;2023-09-19T05:35:31;8.05;;;2.40;;
23952;SDS011;12163;49.316;6.092;2023-09-19T05:37:58;8.95;;;2.40;;
23952;SDS011;12163;49.316;6.092;2023-09-19T05:40:25;13.30;;;2.60;;
23952;SDS011;12163;49.316;6.092;2023-09-19T05:42:52;9.30;;;2.63;;
23952;SDS011;12163;49.316;6.092;2023-09-19T05:45:18;18.13;;;2.95;;
23952;SDS011;12163;49.316;6.092;2023-09-19T05:47:49;10.68;;;2.50;;
23952;SDS011;12163;49.316;6.092;2023-09-19T05:50:17;11.20;;;2.50;;
23952;SDS011;12163;49.316;6.092;2023-09-19T05:52:50;9.45;;;2.50;;
23952;SDS011;12163;49.316;6.092;2023-09-19T05:55:18;10.60;;;2.35;;
23952;SDS011;12163;49.316;6.092;2023-09-19T05:57:52;9.13;;;2.60;;
23952;SDS011;12163;49.316;6.092;2023-09-19T06:00:20;11.73;;;2.67;;
23952;SDS011;12163;49.316;6.092;2023-09-19T06:05:26;11.57;;;3.00;;
23952;SDS011;12163;49.316;6.092;2023-09-19T06:07:54;14.48;;;3.47;;
23952;SDS011;12163;49.316;6.092;2023-09-19T06:10:21;13.57;;;3.00;;
23952;SDS011;12163;49.316;6.092;2023-09-19T06:12:49;13.50;;;3.15;;
23952;SDS011;12163;49.316;6.092;2023-09-19T06:15:16;12.07;;;2.50;;
23952;SDS011;12163;49.316;6.092;2023-09-19T06:17:51;11.75;;;3.00;;
23952;SDS011;12163;49.316;6.092;2023-09-19T06:20:24;11.45;;;2.70;;
23952;SDS011;12163;49.316;6.092;2023-09-19T06:22:52;10.83;;;2.80;;
23952;SDS011;12163;49.316;6.092;2023-09-19T06:25:20;13.07;;;2.90;;
23952;SDS011;12163;49.316;6.092;2023-09-19T06:27:49;14.07;;;2.83;;
23952;SDS011;12163;49.316;6.092;2023-09-19T06:30:23;15.05;;;2.70;;
23952;SDS011;12163;49.316;6.092;2023-09-19T06:32:58;12.60;;;2.90;;
23952;SDS011;12163;49.316;6.092;2023-09-19T06:35:26;11.80;;;2.63;;
23952;SDS011;12163;49.316;6.092;2023-09-19T06:37:56;12.60;;;2.97;;
23952;SDS011;12163;49.316;6.092;2023-09-19T06:40:25;12.35;;;2.97;;
23952;SDS011;12163;49.316;6.092;2023-09-19T06:42:52;11.80;;;2.63;;
23952;SDS011;12163;49.316;6.092;2023-09-19T06:45:19;10.77;;;2.50;;
23952;SDS011;12163;49.316;6.092;2023-09-19T06:47:48;9.23;;;2.50;;
23952;SDS011;12163;49.316;6.092;2023-09-19T06:50:17;11.30;;;2.58;;
23952;SDS011;12163;49.316;6.092;2023-09-19T06:52:46;16.85;;;3.17;;
23952;SDS011;12163;49.316;6.092;2023-09-19T06:55:17;11.80;;;2.70;;
23952;SDS011;12163;49.316;6.092;2023-09-19T06:57:46;14.70;;;2.80;;
23952;SDS011;12163;49.316;6.092;2023-09-19T07:00:14;10.18;;;2.55;;
23952;SDS011;12163;49.316;6.092;2023-09-19T07:02:42;10.23;;;2.50;;
23952;SDS011;12163;49.316;6.092;2023-09-19T07:05:09;10.23;;;2.80;;
23952;SDS011;12163;49.316;6.092;2023-09-19T07:07:36;10.75;;;2.47;;
23952;SDS011;12163;49.316;6.092;2023-09-19T07:10:03;9.68;;;2.47;;
23952;SDS011;12163;49.316;6.092;2023-09-19T07:12:34;12.67;;;2.60;;
23952;SDS011;12163;49.316;6.092;2023-09-19T07:15:01;11.63;;;2.55;;
23952;SDS011;12163;49.316;6.092;2023-09-19T07:17:28;13.43;;;2.55;;
23952;SDS011;12163;49.316;6.092;2023-09-19T07:19:56;14.18;;;3.00;;
23952;SDS011;12163;49.316;6.092;2023-09-19T07:22:26;11.88;;;2.60;;
23952;SDS011;12163;49.316;6.092;2023-09-19T07:24:53;11.63;;;3.00;;
23952;SDS011;12163;49.316;6.092;2023-09-19T07:27:19;10.73;;;2.63;;
23952;SDS011;12163;49.316;6.092;2023-09-19T07:29:46;11.23;;;2.70;;
23952;SDS011;12163;49.316;6.092;2023-09-19T07:32:16;13.15;;;2.88;;
23952;SDS011;12163;49.316;6.092;2023-09-19T07:34:43;11.65;;;2.83;;
23952;SDS011;12163;49.316;6.092;2023-09-19T07:37:11;9.70;;;2.60;;
23952;SDS011;12163;49.316;6.092;2023-09-19T07:39:39;11.65;;;2.80;;
23952;SDS011;12163;49.316;6.092;2023-09-19T07:42:07;11.73;;;2.60;;
23952;SDS011;12163;49.316;6.092;2023-09-19T07:44:37;15.55;;;2.95;;
23952;SDS011;12163;49.316;6.092;2023-09-19T07:47:04;11.65;;;2.55;;
23952;SDS011;12163;49.316;6.092;2023-09-19T07:49:31;12.47;;;2.80;;
23952;SDS011;12163;49.316;6.092;2023-09-19T07:51:58;11.57;;;2.97;;
23952;SDS011;12163;49.316;6.092;2023-09-19T07:54:25;18.00;;;3.58;;
23952;SDS011;12163;49.316;6.092;2023-09-19T07:56:53;9.38;;;2.60;;
23952;SDS011;12163;49.316;6.092;2023-09-19T07:59:20;9.85;;;2.65;;
23952;SDS011;12163;49.316;6.092;2023-09-19T08:01:47;12.38;;;2.80;;
23952;SDS011;12163;49.316;6.092;2023-09-19T08:04:14;14.95;;;2.78;;
23952;SDS011;12163;49.316;6.092;2023-09-19T08:06:41;10.40;;;2.42;;
23952;SDS011;12163;49.316;6.092;2023-09-19T08:09:07;10.60;;;2.67;;
23952;SDS011;12163;49.316;6.092;2023-09-19T08:11:37;16.10;;;3.13;;
23952;SDS011;12163;49.316;6.092;2023-09-19T08:14:03;13.65;;;2.80;;
23952;SDS011;12163;49.316;6.092;2023-09-19T08:16:32;14.77;;;2.70;;
23952;SDS011;12163;49.316;6.092;2023-09-19T08:18:59;11.95;;;2.97;;
23952;SDS011;12163;49.316;6.092;2023-09-19T08:21:25;14.30;;;3.10;;
23952;SDS011;12163;49.316;6.092;2023-09-19T08:23:55;13.65;;;2.90;;
23952;SDS011;12163;49.316;6.092;2023-09-19T08:26:23;14.90;;;3.10;;
23952;SDS011;12163;49.316;6.092;2023-09-19T08:28:50;15.20;;;3.13;;
23952;SDS011;12163;49.316;6.092;2023-09-19T08:31:17;11.60;;;2.90;;
23952;SDS011;12163;49.316;6.092;2023-09-19T08:33:44;11.43;;;2.67;;
23952;SDS011;12163;49.316;6.092;2023-09-19T08:36:15;12.40;;;2.92;;
23952;SDS011;12163;49.316;6.092;2023-09-19T08:38:42;11.65;;;2.97;;
23952;SDS011;12163;49.316;6.092;2023-09-19T08:41:08;12.48;;;2.97;;
23952;SDS011;12163;49.316;6.092;2023-09-19T08:43:36;13.57;;;3.10;;
23952;SDS011;12163;49.316;6.092;2023-09-19T08:46:09;14.05;;;3.05;;
23952;SDS011;12163;49.316;6.092;2023-09-19T08:48:46;13.15;;;2.67;;
23952;SDS011;12163;49.316;6.092;2023-09-19T08:51:23;13.48;;;2.80;;
23952;SDS011;12163;49.316;6.092;2023-09-19T08:56:40;10.85;;;2.80;;
23952;SDS011;12163;49.316;6.092;2023-09-19T08:59:09;12.32;;;2.88;;
23952;SDS011;12163;49.316;6.092;2023-09-19T09:01:39;10.70;;;2.90;;
23952;SDS011;12163;49.316;6.092;2023-09-19T09:04:08;11.85;;;3.08;;
23952;SDS011;12163;49.316;6.092;2023-09-19T09:06:39;10.63;;;2.45;;
23952;SDS011;12163;49.316;6.092;2023-09-19T09:09:10;15.23;;;2.80;;
23952;SDS011;12163;49.316;6.092;2023-09-19T09:11:37;10.60;;;2.58;;
23952;SDS011;12163;49.316;6.092;2023-09-19T09:14:06;9.38;;;2.85;;
23952;SDS011;12163;49.316;6.092;2023-09-19T09:16:34;9.65;;;2.72;;
23952;SDS011;12163;49.316;6.092;2023-09-19T09:19:01;11.40;;;2.60;;
23952;SDS011;12163;49.316;6.092;2023-09-19T09:21:27;9.40;;;2.40;;
23952;SDS011;12163;49.316;6.092;2023-09-19T09:23:54;14.20;;;3.05;;
23952;SDS011;12163;49.316;6.092;2023-09-19T09:29:06;14.43;;;2.72;;
23952;SDS011;12163;49.316;6.092;2023-09-19T09:31:33;10.20;;;2.67;;
23952;SDS011;12163;49.316;6.092;2023-09-19T09:34:00;11.68;;;2.63;;
23952;SDS011;12163;49.316;6.092;2023-09-19T09:36:36;11.35;;;2.58;;
23952;SDS011;12163;49.316;6.092;2023-09-19T09:39:05;12.93;;;2.92;;
23952;SDS011;12163;49.316;6.092;2023-09-19T09:41:52;14.03;;;2.77;;
23952;SDS011;12163;49.316;6.092;2023-09-19T09:44:18;10.10;;;2.20;;
23952;SDS011;12163;49.316;6.092;2023-09-19T09:46:46;10.13;;;2.65;;
23952;SDS011;12163;49.316;6.092;2023-09-19T09:49:23;14.30;;;2.88;;
23952;SDS011;12163;49.316;6.092;2023-09-19T09:52:01;12.23;;;2.40;;
23952;SDS011;12163;49.316;6.092;2023-09-19T09:54:59;8.50;;;2.75;;
23952;SDS011;12163;49.316;6.092;2023-09-19T09:57:34;12.98;;;2.70;;
23952;SDS011;12163;49.316;6.092;2023-09-19T10:00:02;12.82;;;2.42;;
23952;SDS011;12163;49.316;6.092;2023-09-19T10:02:38;9.93;;;2.45;;
23952;SDS011;12163;49.316;6.092;2023-09-19T10:05:20;10.90;;;2.47;;
23952;SDS011;12163;49.316;6.092;2023-09-19T10:07:54;13.40;;;2.55;;
23952;SDS011;12163;49.316;6.092;2023-09-19T10:10:36;10.73;;;2.60;;
23952;SDS011;12163;49.316;6.092;2023-09-19T10:13:11;13.73;;;2.40;;
23952;SDS011;12163;49.316;6.092;2023-09-19T10:15:40;8.52;;;2.40;;
23952;SDS011;12163;49.316;6.092;2023-09-19T10:18:12;11.45;;;2.78;;
23952;SDS011;12163;49.316;6.092;2023-09-19T10:20:45;9.65;;;2.63;;
23952;SDS011;12163;49.316;6.092;2023-09-19T10:23:12;9.00;;;2.40;;
23952;SDS011;12163;49.316;6.092;2023-09-19T10:25:40;8.38;;;2.35;;
23952;SDS011;12163;49.316;6.092;2023-09-19T10:28:11;8.57;;;2.47;;
23952;SDS011;12163;49.316;6.092;2023-09-19T10:30:43;10.18;;;2.60;;
23952;SDS011;12163;49.316;6.092;2023-09-19T10:33:12;10.02;;;2.58;;
23952;SDS011;12163;49.316;6.092;2023-09-19T10:35:45;7.00;;;2.08;;
23952;SDS011;12163;49.316;6.092;2023-09-19T10:38:34;6.93;;;2.17;;
23952;SDS011;12163;49.316;6.092;2023-09-19T10:41:02;8.05;;;2.08;;
23952;SDS011;12163;49.316;6.092;2023-09-19T10:43:30;9.00;;;2.33;;
23952;SDS011;12163;49.316;6.092;2023-09-19T10:46:05;10.35;;;2.40;;
23952;SDS011;12163;49.316;6.092;2023-09-19T10:48:34;8.03;;;2.33;;
23952;SDS011;12163;49.316;6.092;2023-09-19T10:53:40;10.18;;;2.70;;
23952;SDS011;12163;49.316;6.092;2023-09-19T10:56:11;11.35;;;2.60;;
23952;SDS011;12163;49.316;6.092;2023-09-19T10:58:45;7.70;;;2.20;;
23952;SDS011;12163;49.316;6.092;2023-09-19T11:01:12;8.48;;;2.15;;
23952;SDS011;12163;49.316;6.092;2023-09-19T11:03:41;8.25;;;2.30;;
23952;SDS011;12163;49.316;6.092;2023-09-19T11:06:13;7.30;;;2.42;;
23952;SDS011;12163;49.316;6.092;2023-09-19T11:08:58;7.90;;;2.28;;
23952;SDS011;12163;49.316;6.092;2023-09-19T11:30:49;6.30;;;1.98;;
23952;SDS011;12163;49.316;6.092;2023-09-19T11:43:52;6.20;;;2.10;;
23952;SDS011;12163;49.316;6.092;2023-09-19T11:46:23;7.30;;;1.77;;
23952;SDS011;12163;49.316;6.092;2023-09-19T11:48:51;5.10;;;1.70;;
23952;SDS011;12163;49.316;6.092;2023-09-19T11:51:19;7.10;;;1.90;;
23952;SDS011;12163;49.316;6.092;2023-09-19T11:53:56;8.25;;;2.00;;
23952;SDS011;12163;49.316;6.092;2023-09-19T11:56:26;5.35;;;1.65;;
23952;SDS011;12163;49.316;6.092;2023-09-19T11:58:54;5.47;;;1.80;;
23952;SDS011;12163;49.316;6.092;2023-09-19T12:03:58;6.43;;;1.70;;
23952;SDS011;12163;49.316;6.092;2023-09-19T12:06:28;6.63;;;1.77;;
23952;SDS011;12163;49.316;6.092;2023-09-19T12:08:56;4.38;;;1.70;;
23952;SDS011;12163;49.316;6.092;2023-09-19T12:11:29;5.07;;;1.40;;
23952;SDS011;12163;49.316;6.092;2023-09-19T12:14:00;7.40;;;1.67;;
23952;SDS011;12163;49.316;6.092;2023-09-19T12:16:28;5.60;;;1.60;;
23952;SDS011;12163;49.316;6.092;2023-09-19T12:19:17;8.45;;;1.48;;
23952;SDS011;12163;49.316;6.092;2023-09-19T12:21:57;6.68;;;1.40;;
23952;SDS011;12163;49.316;6.092;2023-09-19T12:24:26;4.28;;;1.60;;
23952;SDS011;12163;49.316;6.092;2023-09-19T12:26:59;6.83;;;1.60;;
23952;SDS011;12163;49.316;6.092;2023-09-19T12:29:27;4.77;;;1.47;;
23952;SDS011;12163;49.316;6.092;2023-09-19T12:31:56;5.75;;;1.80;;
23952;SDS011;12163;49.316;6.092;2023-09-19T12:34:25;5.32;;;1.55;;
23952;SDS011;12163;49.316;6.092;2023-09-19T12:39:48;5.85;;;1.70;;
23952;SDS011;12163;49.316;6.092;2023-09-19T12:42:19;4.07;;;1.60;;
23952;SDS011;12163;49.316;6.092;2023-09-19T12:44:49;6.77;;;1.80;;
23952;SDS011;12163;49.316;6.092;2023-09-19T12:47:21;6.68;;;1.75;;
23952;SDS011;12163;49.316;6.092;2023-09-19T12:52:40;4.38;;;1.40;;
23952;SDS011;12163;49.316;6.092;2023-09-19T12:55:24;4.07;;;1.43;;
23952;SDS011;12163;49.316;6.092;2023-09-19T13:00:33;5.93;;;1.50;;
23952;SDS011;12163;49.316;6.092;2023-09-19T13:03:13;5.03;;;1.60;;
23952;SDS011;12163;49.316;6.092;2023-09-19T13:05:50;4.85;;;1.55;;
23952;SDS011;12163;49.316;6.092;2023-09-19T13:08:28;6.53;;;1.73;;
23952;SDS011;12163;49.316;6.092;2023-09-19T13:11:12;5.47;;;1.80;;
23952;SDS011;12163;49.316;6.092;2023-09-19T13:13:47;4.72;;;1.60;;
23952;SDS011;12163;49.316;6.092;2023-09-19T13:16:34;4.50;;;1.85;;
23952;SDS011;12163;49.316;6.092;2023-09-19T13:25:14;4.88;;;1.58;;
23952;SDS011;12163;49.316;6.092;2023-09-19T13:27:45;4.53;;;1.55;;
23952;SDS011;12163;49.316;6.092;2023-09-19T13:30:19;6.75;;;1.70;;
23952;SDS011;12163;49.316;6.092;2023-09-19T13:32:47;5.20;;;1.75;;
23952;SDS011;12163;49.316;6.092;2023-09-19T13:35:14;4.53;;;1.70;;
23952;SDS011;12163;49.316;6.092;2023-09-19T13:37:42;5.35;;;1.65;;
23952;SDS011;12163;49.316;6.092;2023-09-19T13:40:13;3.70;;;1.30;;
23952;SDS011;12163;49.316;6.092;2023-09-19T13:42:40;5.35;;;1.58;;
23952;SDS011;12163;49.316;6.092;2023-09-19T13:45:08;4.15;;;1.58;;
23952;SDS011;12163;49.316;6.092;2023-09-19T13:47:39;5.82;;;1.67;;
23952;SDS011;12163;49.316;6.092;2023-09-19T13:50:07;4.15;;;1.50;;
23952;SDS011;12163;49.316;6.092;2023-09-19T13:52:35;5.60;;;1.70;;
23952;SDS011;12163;49.316;6.092;2023-09-19T13:55:02;4.60;;;1.58;;
23952;SDS011;12163;49.316;6.092;2023-09-19T13:57:28;6.63;;;1.83;;
23952;SDS011;12163;49.316;6.092;2023-09-19T13:59:56;4.38;;;1.50;;
23952;SDS011;12163;49.316;6.092;2023-09-19T14:02:22;4.60;;;1.52;;
23952;SDS011;12163;49.316;6.092;2023-09-19T14:04:50;8.43;;;1.50;;
23952;SDS011;12163;49.316;6.092;2023-09-19T14:07:20;3.80;;;1.52;;
23952;SDS011;12163;49.316;6.092;2023-09-19T14:09:46;5.03;;;1.40;;
23952;SDS011;12163;49.316;6.092;2023-09-19T14:12:14;3.20;;;1.42;;
23952;SDS011;12163;49.316;6.092;2023-09-19T14:14:41;3.65;;;1.40;;
23952;SDS011;12163;49.316;6.092;2023-09-19T14:17:08;4.13;;;1.30;;
23952;SDS011;12163;49.316;6.092;2023-09-19T14:19:35;5.20;;;1.80;;
23952;SDS011;12163;49.316;6.092;2023-09-19T14:22:03;3.80;;;1.20;;
23952;SDS011;12163;49.316;6.092;2023-09-19T14:24:34;4.45;;;1.50;;
23952;SDS011;12163;49.316;6.092;2023-09-19T14:27:02;3.87;;;1.33;;
23952;SDS011;12163;49.316;6.092;2023-09-19T14:29:30;3.88;;;1.30;;
23952;SDS011;12163;49.316;6.092;2023-09-19T14:31:58;5.18;;;1.50;;
23952;SDS011;12163;49.316;6.092;2023-09-19T14:34:25;4.97;;;1.30;;
23952;SDS011;12163;49.316;6.092;2023-09-19T14:36:52;5.77;;;1.40;;
23952;SDS011;12163;49.316;6.092;2023-09-19T14:39:21;7.38;;;1.50;;
23952;SDS011;12163;49.316;6.092;2023-09-19T14:41:47;3.90;;;1.40;;
23952;SDS011;12163;49.316;6.092;2023-09-19T14:44:14;4.30;;;1.50;;
23952;SDS011;12163;49.316;6.092;2023-09-19T14:46:42;3.25;;;1.25;;
23952;SDS011;12163;49.316;6.092;2023-09-19T14:49:11;5.20;;;1.27;;
23952;SDS011;12163;49.316;6.092;2023-09-19T14:51:38;3.40;;;1.40;;
23952;SDS011;12163;49.316;6.092;2023-09-19T14:54:06;5.22;;;1.33;;
23952;SDS011;12163;49.316;6.092;2023-09-19T14:56:34;4.53;;;1.42;;
23952;SDS011;12163;49.316;6.092;2023-09-19T14:59:01;5.40;;;1.48;;
23952;SDS011;12163;49.316;6.092;2023-09-19T15:01:29;4.32;;;1.38;;
23952;SDS011;12163;49.316;6.092;2023-09-19T15:03:56;5.68;;;1.55;;
23952;SDS011;12163;49.316;6.092;2023-09-19T15:06:23;4.13;;;1.40;;
23952;SDS011;12163;49.316;6.092;2023-09-19T15:08:50;2.83;;;1.27;;
23952;SDS011;12163;49.316;6.092;2023-09-19T15:11:17;4.88;;;1.42;;
23952;SDS011;12163;49.316;6.092;2023-09-19T15:13:45;4.15;;;1.30;;
23952;SDS011;12163;49.316;6.092;2023-09-19T15:16:12;3.83;;;1.30;;
23952;SDS011;12163;49.316;6.092;2023-09-19T15:18:41;4.07;;;1.40;;
23952;SDS011;12163;49.316;6.092;2023-09-19T15:21:09;3.63;;;1.45;;
23952;SDS011;12163;49.316;6.092;2023-09-19T15:23:38;4.13;;;1.45;;
23952;SDS011;12163;49.316;6.092;2023-09-19T15:26:06;5.38;;;1.50;;
23952;SDS011;12163;49.316;6.092;2023-09-19T15:28:38;4.85;;;1.48;;
23952;SDS011;12163;49.316;6.092;2023-09-19T15:33:34;5.13;;;1.30;;
23952;SDS011;12163;49.316;6.092;2023-09-19T15:36:11;3.40;;;1.37;;
23952;SDS011;12163;49.316;6.092;2023-09-19T15:41:29;4.88;;;1.80;;
23952;SDS011;12163;49.316;6.092;2023-09-19T15:43:57;4.53;;;1.60;;
23952;SDS011;12163;49.316;6.092;2023-09-19T15:46:27;4.85;;;1.45;;
23952;SDS011;12163;49.316;6.092;2023-09-19T15:48:56;9.88;;;1.77;;
23952;SDS011;12163;49.316;6.092;2023-09-19T15:51:24;5.00;;;1.60;;
23952;SDS011;12163;49.316;6.092;2023-09-19T15:53:51;4.15;;;1.50;;
23952;SDS011;12163;49.316;6.092;2023-09-19T15:56:20;3.35;;;1.45;;
23952;SDS011;12163;49.316;6.092;2023-09-19T15:58:47;5.13;;;1.33;;
23952;SDS011;12163;49.316;6.092;2023-09-19T16:01:15;5.28;;;1.50;;
23952;SDS011;12163;49.316;6.092;2023-09-19T16:03:44;5.53;;;1.80;;
23952;SDS011;12163;49.316;6.092;2023-09-19T16:06:13;5.90;;;1.47;;
23952;SDS011;12163;49.316;6.092;2023-09-19T16:08:42;6.78;;;1.40;;
23952;SDS011;12163;49.316;6.092;2023-09-19T16:11:16;4.30;;;1.55;;
23952;SDS011;12163;49.316;6.092;2023-09-19T16:13:44;4.65;;;1.40;;
23952;SDS011;12163;49.316;6.092;2023-09-19T16:16:14;5.40;;;1.55;;
23952;SDS011;12163;49.316;6.092;2023-09-19T16:18:46;3.83;;;1.40;;
23952;SDS011;12163;49.316;6.092;2023-09-19T16:21:17;6.45;;;1.55;;
23952;SDS011;12163;49.316;6.092;2023-09-19T16:23:46;3.92;;;1.40;;
23952;SDS011;12163;49.316;6.092;2023-09-19T16:26:13;4.57;;;1.33;;